Back to Top

Language: 

My Weather Underground Personal Weather Station Historical Data with Graphs...

Delerius Weather Station Historical Data
Daily Summary for February 4, 2017 Units:  Metric    English   Both
« Previous Day
Next Day »
Daily Weekly Monthly Yearly Custom
  High: Low: Average:
Temperature: 8.8 °C 1.7 °C 4.4 °C
Dew Point: 3.6 °C 0.4 °C 1.9 °C
Humidity: 93 % 63 % 85 %
Wind Speed: 19.3 km/h 0 km/h 8.5 km/h
Wind Gust: 32.2 km/h - -
Wind:- - SSW
Pressure: 997.9 hPa 987.7 hPa -
Precipitation: 0.51 mm    
Historical Graphs
 
 
Tabular Data for February 4, 2017
Time Temperature Dew Point Pressure Wind Wind Speed Wind Gust Humidity Rainfall Rate (Hourly) solar Conditions
00:05 4.7 °C 3.6 °C 987.7 hPa West 12.9 km/h 17.7 km/h 92 % 2.29 mm 0 W/m2
00:15 4.3 °C 3.2 °C 987.7 hPa NW 16.1 km/h 22.5 km/h 93 % 1.52 mm 0 W/m2
00:20 4.1 °C 3.1 °C 987.7 hPa WNW 19.3 km/h 24.1 km/h 93 % 1.02 mm 0 W/m2
00:25 4 °C 2.9 °C 987.7 hPa West 19.3 km/h 24.1 km/h 93 % 0 mm 0 W/m2
00:35 3.8 °C 2.6 °C 988 hPa West 19.3 km/h 20.9 km/h 92 % 0 mm 0 W/m2
00:40 3.7 °C 2.7 °C 988 hPa WSW 17.7 km/h 17.7 km/h 93 % 0 mm 0 W/m2
00:45 3.7 °C 2.7 °C 988 hPa WSW 14.5 km/h 17.7 km/h 93 % 0 mm 0 W/m2
00:50 3.7 °C 2.5 °C 988 hPa West 14.5 km/h 17.7 km/h 92 % 0 mm 0 W/m2
00:55 3.6 °C 2.6 °C 988 hPa West 14.5 km/h 17.7 km/h 93 % 0 mm 0 W/m2
01:05 3.6 °C 2.6 °C 988.4 hPa WNW 16.1 km/h 32.2 km/h 93 % 0 mm 0 W/m2
01:10 3.6 °C 2.6 °C 988.4 hPa West 14.5 km/h 32.2 km/h 93 % 0 mm 0 W/m2
01:15 3.6 °C 2.6 °C 988.7 hPa WSW 14.5 km/h 32.2 km/h 93 % 0 mm 0 W/m2
01:20 3.6 °C 2.6 °C 988.7 hPa WNW 16.1 km/h 16.1 km/h 93 % 0 mm 0 W/m2
01:25 3.5 °C 2.5 °C 988.7 hPa WNW 16.1 km/h 32.2 km/h 93 % 0 mm 0 W/m2
01:30 3.4 °C 2.4 °C 988.7 hPa West 16.1 km/h 32.2 km/h 93 % 0 mm 0 W/m2
01:35 3.4 °C 2.4 °C 989.1 hPa West 14.5 km/h 32.2 km/h 93 % 0 mm 0 W/m2
01:40 3.4 °C 2.4 °C 989.1 hPa SW 12.9 km/h 32.2 km/h 93 % 0 mm 0 W/m2
01:45 3.4 °C 2.4 °C 989.1 hPa West 14.5 km/h 32.2 km/h 93 % 0 mm 0 W/m2
01:50 3.4 °C 2.4 °C 989.1 hPa WSW 14.5 km/h 32.2 km/h 93 % 0 mm 0 W/m2
01:55 3.4 °C 2.4 °C 989.1 hPa WNW 12.9 km/h 32.2 km/h 93 % 0 mm 0 W/m2
02:00 3.5 °C 2.5 °C 989.1 hPa West 12.9 km/h 32.2 km/h 93 % 0 mm 0 W/m2
02:10 3.6 °C 2.6 °C 989.1 hPa West 14.5 km/h 32.2 km/h 93 % 0 mm 0 W/m2
02:15 3.7 °C 2.7 °C 989.4 hPa West 14.5 km/h 32.2 km/h 93 % 0 mm 0 W/m2
02:20 3.7 °C 2.7 °C 989.4 hPa WNW 12.9 km/h 32.2 km/h 93 % 0 mm 0 W/m2
02:25 3.7 °C 2.7 °C 989.7 hPa WNW 11.3 km/h 32.2 km/h 93 % 0 mm 0 W/m2
02:40 3.7 °C 2.7 °C 990.1 hPa WSW 9.7 km/h 9.7 km/h 93 % 0 mm 0 W/m2
02:45 3.7 °C 2.7 °C 990.1 hPa West 9.7 km/h 14.5 km/h 93 % 0 mm 0 W/m2
02:50 3.7 °C 2.7 °C 989.7 hPa West 12.9 km/h 12.9 km/h 93 % 0 mm 0 W/m2
02:55 3.7 °C 2.6 °C 989.7 hPa WSW 12.9 km/h 32.2 km/h 92 % 0 mm 0 W/m2
03:00 3.7 °C 2.5 °C 990.1 hPa WSW 11.3 km/h 11.3 km/h 92 % 0 mm 0 W/m2
03:05 3.7 °C 2.5 °C 990.1 hPa SW 11.3 km/h 32.2 km/h 92 % 0 mm 0 W/m2
03:10 3.7 °C 2.4 °C 990.1 hPa SW 11.3 km/h 32.2 km/h 91 % 0 mm 0 W/m2
03:15 3.7 °C 2.3 °C 990.4 hPa SW 12.9 km/h 32.2 km/h 91 % 0 mm 0 W/m2
03:20 3.7 °C 2.3 °C 990.4 hPa SW 11.3 km/h 11.3 km/h 91 % 0 mm 0 W/m2
03:25 3.7 °C 2.3 °C 990.4 hPa WSW 11.3 km/h 32.2 km/h 91 % 0 mm 0 W/m2
03:30 3.6 °C 2.3 °C 990.4 hPa SW 11.3 km/h 32.2 km/h 91 % 0 mm 0 W/m2
03:35 3.6 °C 2.1 °C 990.4 hPa SW 9.7 km/h 32.2 km/h 90 % 0 mm 0 W/m2
03:45 3.6 °C 2.1 °C 990.4 hPa WSW 11.3 km/h 32.2 km/h 90 % 0 mm 0 W/m2
03:50 3.6 °C 2.1 °C 990.7 hPa SW 12.9 km/h 12.9 km/h 90 % 0 mm 0 W/m2
03:55 3.6 °C 2.1 °C 990.7 hPa SW 11.3 km/h 32.2 km/h 90 % 0 mm 0 W/m2
04:00 3.6 °C 2.1 °C 990.7 hPa WSW 11.3 km/h 11.3 km/h 90 % 0 mm 0 W/m2
04:05 3.5 °C 2 °C 990.7 hPa SW 9.7 km/h 32.2 km/h 90 % 0 mm 0 W/m2
04:10 3.5 °C 2 °C 990.7 hPa SW 9.7 km/h 32.2 km/h 90 % 0 mm 0 W/m2
04:20 3.5 °C 2 °C 990.7 hPa SSW 11.3 km/h 32.2 km/h 90 % 0 mm 0 W/m2
04:25 3.4 °C 2.1 °C 990.7 hPa SW 9.7 km/h 32.2 km/h 91 % 0 mm 0 W/m2
04:30 3.4 °C 2.1 °C 991.1 hPa SSW 9.7 km/h 9.7 km/h 91 % 0 mm 0 W/m2
04:35 3.4 °C 2.1 °C 991.1 hPa SW 9.7 km/h 11.3 km/h 91 % 0 mm 0 W/m2
04:40 3.5 °C 2.2 °C 991.1 hPa SW 9.7 km/h 32.2 km/h 91 % 0 mm 0 W/m2
04:45 3.5 °C 2.2 °C 991.1 hPa SW 9.7 km/h 32.2 km/h 91 % 0 mm 0 W/m2
04:50 3.5 °C 2.2 °C 991.1 hPa SW 9.7 km/h 9.7 km/h 91 % 0 mm 0 W/m2
04:55 3.5 °C 2.2 °C 991.1 hPa SW 11.3 km/h 11.3 km/h 91 % 0 mm 0 W/m2
05:00 3.4 °C 1.9 °C 991.1 hPa West 9.7 km/h 32.2 km/h 90 % 0 mm 0 W/m2
05:05 3.4 °C 1.9 °C 991.1 hPa WSW 9.7 km/h 32.2 km/h 90 % 0 mm 0 W/m2
05:10 3.4 °C 1.9 °C 991.1 hPa SSW 12.9 km/h 32.2 km/h 90 % 0 mm 0 W/m2
05:20 3.4 °C 1.9 °C 991.1 hPa SW 14.5 km/h 32.2 km/h 90 % 0 mm 0 W/m2
05:25 3.4 °C 1.9 °C 991.1 hPa SW 14.5 km/h 32.2 km/h 90 % 0 mm 0 W/m2
05:30 3.4 °C 1.9 °C 991.1 hPa SW 14.5 km/h 32.2 km/h 90 % 0 mm 0 W/m2
05:35 3.3 °C 1.8 °C 991.4 hPa SSW 14.5 km/h 32.2 km/h 90 % 0 mm 0 W/m2
05:40 3.4 °C 1.9 °C 991.4 hPa SSW 14.5 km/h 14.5 km/h 90 % 0 mm 0 W/m2
05:45 3.3 °C 1.8 °C 991.4 hPa SW 14.5 km/h 32.2 km/h 90 % 0 mm 0 W/m2
05:55 3.2 °C 1.7 °C 991.4 hPa SW 12.9 km/h 19.3 km/h 90 % 0 mm 0 W/m2
06:00 3.2 °C 1.7 °C 991.4 hPa WSW 14.5 km/h 14.5 km/h 90 % 0 mm 0 W/m2
06:05 3.3 °C 1.8 °C 991.4 hPa SW 12.9 km/h 32.2 km/h 90 % 0 mm 0 W/m2
06:10 3.3 °C 1.8 °C 991.4 hPa SW 12.9 km/h 12.9 km/h 90 % 0 mm 0 W/m2
06:15 3.3 °C 1.8 °C 991.4 hPa SW 12.9 km/h 32.2 km/h 90 % 0 mm 0 W/m2
06:25 3.2 °C 1.7 °C 991.8 hPa SSW 8 km/h 32.2 km/h 90 % 0 mm 0 W/m2
06:30 3.1 °C 1.6 °C 991.8 hPa SSW 6.4 km/h 6.4 km/h 90 % 0 mm 0 W/m2
06:35 3.1 °C 1.6 °C 991.8 hPa SSW 3.2 km/h 32.2 km/h 90 % 0 mm 0 W/m2
06:40 2.9 °C 1.4 °C 992.1 hPa NE 1.6 km/h 32.2 km/h 90 % 0 mm 0 W/m2
06:45 2.8 °C 1.3 °C 992.1 hPa NE 1.6 km/h 32.2 km/h 90 % 0 mm 0 W/m2
06:50 2.6 °C 1.1 °C 992.1 hPa ENE 3.2 km/h 3.2 km/h 90 % 0 mm 0 W/m2
07:00 2.4 °C 1.1 °C 992.4 hPa ENE 4.8 km/h 32.2 km/h 91 % 0 mm 0 W/m2
07:05 2.3 °C 1.2 °C 992.4 hPa ENE 6.4 km/h 32.2 km/h 92 % 0 mm 0 W/m2
07:10 2.4 °C 1.2 °C 992.4 hPa NE 8 km/h 32.2 km/h 92 % 0 mm 0 W/m2
07:15 2.3 °C 1.2 °C 992.4 hPa ESE 6.4 km/h 32.2 km/h 92 % 0 mm 0 W/m2
07:20 2.4 °C 1.4 °C 992.4 hPa ESE 4.8 km/h 32.2 km/h 93 % 0 mm 0 W/m2
07:30 2.5 °C 1.3 °C 992.8 hPa SSE 6.4 km/h 6.4 km/h 92 % 0 mm 0 W/m2
07:35 2.5 °C 1.3 °C 993.1 hPa SSE 3.2 km/h 32.2 km/h 92 % 0 mm 0 W/m2
07:40 2.5 °C 1.3 °C 993.1 hPa South 3.2 km/h 32.2 km/h 92 % 0 mm 0 W/m2
07:45 2.6 °C 1.4 °C 993.1 hPa SSW 6.4 km/h 32.2 km/h 92 % 0 mm 0 W/m2
07:50 2.6 °C 1.4 °C 993.1 hPa SSW 6.4 km/h 6.4 km/h 92 % 0 mm 5 W/m2
07:55 2.6 °C 1.4 °C 993.1 hPa SSW 4.8 km/h 32.2 km/h 92 % 0 mm 7 W/m2
08:05 2.6 °C 1.4 °C 993.5 hPa SSW 3.2 km/h 32.2 km/h 92 % 0 mm 11 W/m2
08:10 2.6 °C 1.4 °C 993.5 hPa SSW 1.6 km/h 32.2 km/h 92 % 0 mm 14 W/m2
08:15 2.6 °C 1.4 °C 993.5 hPa South 3.2 km/h 32.2 km/h 92 % 0 mm 21 W/m2
08:20 2.6 °C 1.4 °C 993.5 hPa SSE 4.8 km/h 4.8 km/h 92 % 0 mm 26 W/m2
08:25 2.5 °C 1.3 °C 993.8 hPa SSE 4.8 km/h 6.4 km/h 92 % 0 mm 40 W/m2
08:30 2.6 °C 1.4 °C 993.8 hPa SSE 4.8 km/h 32.2 km/h 92 % 0 mm 49 W/m2
08:40 2.8 °C 1.8 °C 993.8 hPa South 9.7 km/h 9.7 km/h 93 % 0 mm 70 W/m2
08:45 2.9 °C 1.9 °C 993.8 hPa SSE 8 km/h 32.2 km/h 93 % 0 mm 76 W/m2
08:50 3.1 °C 1.9 °C 993.8 hPa South 8 km/h 32.2 km/h 92 % 0 mm 83 W/m2
08:55 3.2 °C 2 °C 993.8 hPa South 8 km/h 32.2 km/h 92 % 0 mm 91 W/m2
09:00 3.3 °C 2.2 °C 993.8 hPa SSE 9.7 km/h 9.7 km/h 92 % 0 mm 97 W/m2
09:05 3.4 °C 2.1 °C 994.1 hPa South 9.7 km/h 32.2 km/h 91 % 0 mm 98 W/m2
09:10 3.6 °C 2.2 °C 994.1 hPa South 9.7 km/h 32.2 km/h 91 % 0 mm 128 W/m2
09:15 3.7 °C 2.4 °C 994.1 hPa SSW 9.7 km/h 32.2 km/h 91 % 0 mm 199 W/m2
09:20 3.9 °C 2.6 °C 994.1 hPa South 9.7 km/h 32.2 km/h 91 % 0 mm 176 W/m2
09:25 4 °C 2.5 °C 994.5 hPa South 9.7 km/h 32.2 km/h 90 % 0 mm 213 W/m2
09:30 4.2 °C 2.5 °C 994.5 hPa SSE 9.7 km/h 32.2 km/h 89 % 0 mm 178 W/m2
09:40 4.6 °C 2.9 °C 994.5 hPa SSW 9.7 km/h 32.2 km/h 89 % 0 mm 178 W/m2
09:45 4.7 °C 2.9 °C 994.8 hPa SSW 9.7 km/h 32.2 km/h 88 % 0 mm 113 W/m2
09:50 4.7 °C 2.7 °C 994.8 hPa SSW 11.3 km/h 11.3 km/h 87 % 0 mm 116 W/m2
09:55 4.8 °C 2.6 °C 994.8 hPa South 11.3 km/h 12.9 km/h 86 % 0 mm 139 W/m2
10:00 4.8 °C 2.6 °C 995.1 hPa South 11.3 km/h 32.2 km/h 86 % 0 mm 158 W/m2
10:10 4.8 °C 2.7 °C 995.1 hPa South 12.9 km/h 12.9 km/h 86 % 0 mm 171 W/m2
10:15 4.9 °C 2.7 °C 995.1 hPa SW 12.9 km/h 32.2 km/h 86 % 0 mm 190 W/m2
10:20 4.9 °C 2.6 °C 995.1 hPa SW 12.9 km/h 32.2 km/h 85 % 0 mm 227 W/m2
10:25 5.1 °C 2.7 °C 995.5 hPa SW 12.9 km/h 32.2 km/h 85 % 0 mm 213 W/m2
10:30 5.1 °C 2.8 °C 995.5 hPa SSW 12.9 km/h 32.2 km/h 85 % 0 mm 243 W/m2
10:35 5.2 °C 2.9 °C 995.5 hPa SW 14.5 km/h 32.2 km/h 85 % 0 mm 248 W/m2
10:45 5.4 °C 2.9 °C 995.5 hPa SW 12.9 km/h 32.2 km/h 84 % 0 mm 274 W/m2
10:50 5.6 °C 3.1 °C 995.5 hPa SSW 12.9 km/h 32.2 km/h 84 % 0 mm 274 W/m2
10:55 5.7 °C 3.1 °C 995.5 hPa WSW 12.9 km/h 32.2 km/h 83 % 0 mm 309 W/m2
11:00 5.8 °C 3.2 °C 995.5 hPa WSW 14.5 km/h 32.2 km/h 83 % 0 mm 316 W/m2
11:05 6 °C 3.2 °C 995.5 hPa SSW 16.1 km/h 32.2 km/h 82 % 0 mm 260 W/m2
11:15 6.2 °C 3.2 °C 995.5 hPa SW 16.1 km/h 19.3 km/h 81 % 0 mm 364 W/m2
11:20 6.3 °C 3.1 °C 995.5 hPa SW 16.1 km/h 32.2 km/h 80 % 0 mm 366 W/m2
11:25 6.5 °C 3.3 °C 995.5 hPa WSW 14.5 km/h 32.2 km/h 80 % 0 mm 345 W/m2
11:30 6.6 °C 3.2 °C 995.5 hPa West 16.1 km/h 32.2 km/h 79 % 0 mm 376 W/m2
11:35 6.7 °C 3.3 °C 995.5 hPa WSW 16.1 km/h 32.2 km/h 79 % 0 mm 388 W/m2
11:40 7 °C 3.6 °C 995.5 hPa SW 12.9 km/h 12.9 km/h 79 % 0 mm 385 W/m2
11:50 7.2 °C 3.3 °C 995.5 hPa WSW 14.5 km/h 32.2 km/h 76 % 0 mm 255 W/m2
11:55 7.3 °C 3.3 °C 995.5 hPa SW 14.5 km/h 32.2 km/h 76 % 0 mm 352 W/m2
12:00 7.3 °C 3.3 °C 995.5 hPa WSW 14.5 km/h 32.2 km/h 76 % 0 mm 248 W/m2
12:05 7.2 °C 3.1 °C 995.5 hPa SW 14.5 km/h 32.2 km/h 75 % 0 mm 229 W/m2
12:10 7.2 °C 2.8 °C 995.5 hPa WSW 14.5 km/h 32.2 km/h 74 % 0 mm 274 W/m2
12:20 7.2 °C 3.1 °C 995.5 hPa SW 12.9 km/h 32.2 km/h 75 % 0 mm 329 W/m2
12:25 7.3 °C 3.4 °C 995.8 hPa SSW 12.9 km/h 32.2 km/h 76 % 0 mm 325 W/m2
12:30 7.4 °C 3.3 °C 995.8 hPa SSW 12.9 km/h 12.9 km/h 75 % 0 mm 355 W/m2
12:35 7.6 °C 3.3 °C 995.8 hPa West 12.9 km/h 14.5 km/h 74 % 0 mm 345 W/m2
12:45 7.8 °C 3.3 °C 995.8 hPa SW 14.5 km/h 32.2 km/h 73 % 0 mm 401 W/m2
12:50 8 °C 3.1 °C 995.8 hPa WSW 14.5 km/h 32.2 km/h 71 % 0 mm 401 W/m2
13:00 8.2 °C 2.8 °C 996.2 hPa WSW 14.5 km/h 32.2 km/h 69 % 0 mm 236 W/m2
13:05 8.1 °C 2.5 °C 996.2 hPa SW 16.1 km/h 32.2 km/h 68 % 0 mm 399 W/m2
13:10 8.1 °C 2.6 °C 995.8 hPa WSW 14.5 km/h 32.2 km/h 68 % 0 mm 381 W/m2
13:15 8.2 °C 2.7 °C 995.8 hPa WSW 14.5 km/h 32.2 km/h 68 % 0 mm 378 W/m2
13:20 8.3 °C 2.3 °C 995.8 hPa West 14.5 km/h 32.2 km/h 66 % 0 mm 371 W/m2
13:30 8.5 °C 2.3 °C 995.8 hPa SW 14.5 km/h 14.5 km/h 65 % 0 mm 352 W/m2
13:35 8.5 °C 2.1 °C 995.8 hPa WSW 14.5 km/h 32.2 km/h 64 % 0 mm 346 W/m2
13:40 8.6 °C 2.4 °C 995.8 hPa SW 12.9 km/h 12.9 km/h 65 % 0 mm 338 W/m2
13:45 8.6 °C 2.6 °C 995.8 hPa South 12.9 km/h 32.2 km/h 66 % 0 mm 332 W/m2
13:50 8.6 °C 2.6 °C 995.8 hPa SSW 12.9 km/h 32.2 km/h 66 % 0 mm 327 W/m2
14:00 8.6 °C 2.4 °C 995.8 hPa SW 12.9 km/h 32.2 km/h 65 % 0 mm 313 W/m2
14:05 8.6 °C 1.9 °C 996.2 hPa SSW 12.9 km/h 32.2 km/h 63 % 0 mm 302 W/m2
14:10 8.6 °C 1.9 °C 996.2 hPa SSW 12.9 km/h 12.9 km/h 63 % 0 mm 294 W/m2
14:15 8.6 °C 2.4 °C 996.2 hPa South 12.9 km/h 16.1 km/h 65 % 0 mm 287 W/m2
14:20 8.6 °C 2.4 °C 995.8 hPa SW 11.3 km/h 32.2 km/h 65 % 0 mm 279 W/m2
14:25 8.6 °C 2.4 °C 995.8 hPa WSW 11.3 km/h 32.2 km/h 65 % 0 mm 274 W/m2
14:35 8.6 °C 2.2 °C 995.8 hPa SW 12.9 km/h 32.2 km/h 64 % 0 mm 260 W/m2
14:40 8.6 °C 1.9 °C 996.2 hPa WSW 12.9 km/h 32.2 km/h 63 % 0 mm 250 W/m2
14:45 8.6 °C 1.9 °C 996.2 hPa South 12.9 km/h 32.2 km/h 63 % 0 mm 241 W/m2
14:50 8.6 °C 1.9 °C 996.2 hPa SSW 11.3 km/h 11.3 km/h 63 % 0 mm 232 W/m2
14:55 8.6 °C 1.9 °C 996.2 hPa SW 9.7 km/h 32.2 km/h 63 % 0 mm 221 W/m2
15:05 8.8 °C 2.6 °C 996.5 hPa SSW 6.4 km/h 32.2 km/h 65 % 0 mm 204 W/m2
15:10 8.7 °C 2.4 °C 996.5 hPa SSW 9.7 km/h 32.2 km/h 65 % 0 mm 192 W/m2
15:15 8.6 °C 2.6 °C 996.5 hPa SW 9.7 km/h 32.2 km/h 66 % 0 mm 181 W/m2
15:20 8.5 °C 2.7 °C 996.5 hPa SSW 9.7 km/h 32.2 km/h 67 % 0 mm 171 W/m2
15:25 8.3 °C 2.6 °C 996.5 hPa South 9.7 km/h 32.2 km/h 67 % 0 mm 160 W/m2
15:30 8.1 °C 2.3 °C 996.5 hPa SSW 9.7 km/h 9.7 km/h 67 % 0 mm 151 W/m2
15:40 7.8 °C 2.4 °C 996.5 hPa SSW 9.7 km/h 32.2 km/h 69 % 0 mm 35 W/m2
15:45 7.7 °C 2.6 °C 996.8 hPa SSW 11.3 km/h 32.2 km/h 70 % 0 mm 28 W/m2
15:50 7.6 °C 2.6 °C 996.8 hPa South 9.7 km/h 9.7 km/h 71 % 0 mm 26 W/m2
15:55 7.5 °C 2.6 °C 996.8 hPa SSW 9.7 km/h 11.3 km/h 71 % 0 mm 25 W/m2
16:00 7.4 °C 2.7 °C 996.5 hPa SSW 9.7 km/h 32.2 km/h 72 % 0 mm 23 W/m2
16:10 7.2 °C 2.5 °C 996.5 hPa SSW 9.7 km/h 9.7 km/h 72 % 0 mm 19 W/m2
16:15 7.2 °C 2.5 °C 996.8 hPa SSW 6.4 km/h 11.3 km/h 72 % 0 mm 18 W/m2
16:20 7.1 °C 2.4 °C 996.8 hPa SSW 4.8 km/h 32.2 km/h 72 % 0 mm 12 W/m2
16:25 7 °C 2.3 °C 996.8 hPa SSW 6.4 km/h 32.2 km/h 72 % 0 mm 11 W/m2
16:30 6.9 °C 2.4 °C 996.8 hPa SSE 3.2 km/h 32.2 km/h 73 % 0 mm 9 W/m2
16:35 6.7 °C 2.2 °C 996.8 hPa South 4.8 km/h 32.2 km/h 73 % 0 mm 9 W/m2
16:45 6.4 °C 2.2 °C 996.8 hPa South 4.8 km/h 32.2 km/h 74 % 0 mm 5 W/m2
16:50 6.3 °C 2 °C 996.8 hPa South 4.8 km/h 32.2 km/h 74 % 0 mm 5 W/m2
16:55 6.2 °C 1.9 °C 996.8 hPa South 6.4 km/h 32.2 km/h 74 % 0 mm 0 W/m2
17:00 6.1 °C 1.8 °C 996.8 hPa SSW 8 km/h 8 km/h 74 % 0 mm 0 W/m2
17:05 6 °C 1.9 °C 996.8 hPa SSW 9.7 km/h 12.9 km/h 75 % 0 mm 0 W/m2
17:15 5.9 °C 1.8 °C 997.2 hPa SSW 6.4 km/h 32.2 km/h 75 % 0 mm 0 W/m2
17:25 5.6 °C 1.7 °C 997.2 hPa SSE 1.6 km/h 8 km/h 76 % 0 mm 0 W/m2
17:30 5.4 °C 1.7 °C 997.2 hPa SSE 4.8 km/h 4.8 km/h 77 % 0 mm 0 W/m2
17:35 5.3 °C 1.6 °C 997.2 hPa SSE 4.8 km/h 32.2 km/h 77 % 0 mm 0 W/m2
17:40 5.2 °C 1.7 °C 997.2 hPa SSE 4.8 km/h 4.8 km/h 78 % 0 mm 0 W/m2
17:45 5.1 °C 1.6 °C 997.2 hPa SSE 4.8 km/h 6.4 km/h 78 % 0 mm 0 W/m2
17:50 4.9 °C 1.6 °C 997.2 hPa SSE 3.2 km/h 32.2 km/h 79 % 0 mm 0 W/m2
18:00 4.6 °C 1.4 °C 997.2 hPa SSE 3.2 km/h 3.2 km/h 80 % 0 mm 0 W/m2
18:05 4.4 °C 1.4 °C 997.5 hPa SSE 3.2 km/h 32.2 km/h 81 % 0 mm 0 W/m2
18:10 4.3 °C 1.3 °C 997.2 hPa SSE 3.2 km/h 3.2 km/h 81 % 0 mm 0 W/m2
18:15 4.3 °C 1.5 °C 997.5 hPa SSE 1.6 km/h 6.4 km/h 82 % 0 mm 0 W/m2
18:20 4.3 °C 1.5 °C 997.2 hPa SSE 3.2 km/h 3.2 km/h 82 % 0 mm 0 W/m2
18:30 4.1 °C 1.3 °C 997.2 hPa Calm   32.2 km/h 82 % 0 mm 0 W/m2
18:35 3.9 °C 1.3 °C 997.2 hPa Calm   32.2 km/h 83 % 0 mm 0 W/m2
18:40 3.7 °C 1.1 °C 997.2 hPa Calm   32.2 km/h 83 % 0 mm 0 W/m2
18:45 3.5 °C 0.9 °C 997.2 hPa Calm   32.2 km/h 83 % 0 mm 0 W/m2
18:50 3.3 °C 0.9 °C 997.2 hPa Calm   32.2 km/h 84 % 0 mm 0 W/m2
18:55 3.1 °C 0.8 °C 997.2 hPa Calm   32.2 km/h 85 % 0 mm 0 W/m2
19:05 2.8 °C 0.6 °C 997.5 hPa Calm   32.2 km/h 85 % 0 mm 0 W/m2
19:10 2.8 °C 0.8 °C 997.5 hPa Calm   32.2 km/h 87 % 0 mm 0 W/m2
19:15 2.8 °C 0.8 °C 997.5 hPa Calm   32.2 km/h 87 % 0 mm 0 W/m2
19:20 2.8 °C 0.8 °C 997.5 hPa Calm   32.2 km/h 87 % 0 mm 0 W/m2
19:25 2.8 °C 0.8 °C 997.2 hPa Calm   32.2 km/h 87 % 0 mm 0 W/m2
19:35 2.6 °C 0.7 °C 997.5 hPa Calm   32.2 km/h 87 % 0 mm 0 W/m2
19:40 2.5 °C 0.6 °C 997.5 hPa Calm   32.2 km/h 87 % 0 mm 0 W/m2
19:45 2.3 °C 0.6 °C 997.2 hPa Calm   32.2 km/h 88 % 0 mm 0 W/m2
19:50 2.3 °C 0.7 °C 997.5 hPa SSE 1.6 km/h 32.2 km/h 89 % 0 mm 0 W/m2
19:55 2.3 °C 0.7 °C 997.5 hPa SSE 1.6 km/h 32.2 km/h 89 % 0 mm 0 W/m2
20:00 2.3 °C 0.7 °C 997.5 hPa ESE 1.6 km/h 32.2 km/h 89 % 0 mm 0 W/m2
20:10 2.5 °C 1 °C 997.5 hPa ESE 3.2 km/h 3.2 km/h 90 % 0 mm 0 W/m2
20:15 2.4 °C 0.8 °C 997.5 hPa ESE 3.2 km/h 32.2 km/h 89 % 0 mm 0 W/m2
20:20 2.4 °C 0.8 °C 997.5 hPa ESE 3.2 km/h 32.2 km/h 89 % 0 mm 0 W/m2
20:25 2.4 °C 0.8 °C 997.5 hPa ESE 3.2 km/h 32.2 km/h 89 % 0 mm 0 W/m2
20:30 2.3 °C 0.7 °C 997.5 hPa ESE 3.2 km/h 3.2 km/h 89 % 0 mm 0 W/m2
20:40 2.3 °C 0.8 °C 997.5 hPa ESE 1.6 km/h 1.6 km/h 90 % 0 mm 0 W/m2
20:45 2.2 °C 0.8 °C 997.5 hPa ESE 1.6 km/h 8 km/h 90 % 0 mm 0 W/m2
20:50 2.3 °C 0.8 °C 997.5 hPa ESE 1.6 km/h 32.2 km/h 90 % 0 mm 0 W/m2
21:00 2.4 °C 0.9 °C 997.5 hPa ESE 1.6 km/h 1.6 km/h 90 % 0 mm 0 W/m2
21:05 2.4 °C 0.8 °C 997.5 hPa ESE 1.6 km/h 32.2 km/h 89 % 0 mm 0 W/m2
21:10 2.3 °C 0.7 °C 997.5 hPa ESE 1.6 km/h 32.2 km/h 89 % 0 mm 0 W/m2
21:15 2.3 °C 0.7 °C 997.5 hPa ESE 1.6 km/h 32.2 km/h 89 % 0 mm 0 W/m2
21:25 2.3 °C 0.8 °C 997.5 hPa ESE 1.6 km/h 32.2 km/h 90 % 0 mm 0 W/m2
21:30 2.3 °C 0.8 °C 997.5 hPa SE 3.2 km/h 32.2 km/h 90 % 0 mm 0 W/m2
21:35 2.3 °C 0.8 °C 997.5 hPa SE 4.8 km/h 32.2 km/h 90 % 0 mm 0 W/m2
21:40 2.4 °C 0.9 °C 997.5 hPa SSE 4.8 km/h 4.8 km/h 90 % 0 mm 0 W/m2
21:50 2.6 °C 1.1 °C 997.5 hPa South 4.8 km/h 4.8 km/h 90 % 0 mm 0 W/m2
21:55 2.6 °C 0.9 °C 997.5 hPa SSE 3.2 km/h 32.2 km/h 89 % 0 mm 0 W/m2
22:00 2.5 °C 0.9 °C 997.5 hPa South 1.6 km/h 1.6 km/h 89 % 0 mm 0 W/m2
22:05 2.4 °C 0.8 °C 997.5 hPa South 1.6 km/h 32.2 km/h 89 % 0 mm 0 W/m2
22:10 2.3 °C 0.7 °C 997.5 hPa Calm   32.2 km/h 89 % 0 mm 0 W/m2
22:20 2.3 °C 0.8 °C 997.5 hPa SE 1.6 km/h 32.2 km/h 90 % 0 mm 0 W/m2
22:25 2.2 °C 0.6 °C 997.5 hPa SE 1.6 km/h 32.2 km/h 89 % 0 mm 0 W/m2
22:30 2.2 °C 0.7 °C 997.5 hPa SSE 1.6 km/h 32.2 km/h 90 % 0 mm 0 W/m2
22:35 2.2 °C 0.8 °C 997.5 hPa SSE 3.2 km/h 32.2 km/h 90 % 0 mm 0 W/m2
22:40 2.2 °C 0.8 °C 997.5 hPa SSE 4.8 km/h 4.8 km/h 90 % 0 mm 0 W/m2
22:45 2.2 °C 0.7 °C 997.9 hPa SSE 3.2 km/h 32.2 km/h 90 % 0 mm 0 W/m2
22:55 2.1 °C 0.6 °C 997.5 hPa SE 1.6 km/h 32.2 km/h 90 % 0 mm 0 W/m2
23:00 2 °C 0.6 °C 997.5 hPa SE 1.6 km/h 32.2 km/h 90 % 0 mm 0 W/m2
23:05 1.9 °C 0.5 °C 997.5 hPa SE 1.6 km/h 32.2 km/h 90 % 0 mm 0 W/m2
23:10 1.9 °C 0.4 °C 997.5 hPa Calm   32.2 km/h 90 % 0 mm 0 W/m2
23:15 1.9 °C 0.4 °C 997.5 hPa Calm   32.2 km/h 90 % 0 mm 0 W/m2
23:25 1.8 °C 0.5 °C 997.5 hPa Calm   32.2 km/h 91 % 0 mm 0 W/m2
23:30 1.8 °C 0.5 °C 997.9 hPa Calm   32.2 km/h 91 % 0 mm 0 W/m2
23:35 1.8 °C 0.4 °C 997.5 hPa Calm   32.2 km/h 91 % 0 mm 0 W/m2
23:40 1.8 °C 0.4 °C 997.5 hPa Calm   32.2 km/h 91 % 0 mm 0 W/m2
23:45 1.7 °C 0.4 °C 997.5 hPa Calm   32.2 km/h 91 % 0 mm 0 W/m2
23:50 1.7 °C 0.4 °C 997.5 hPa Calm   32.2 km/h 91 % 0 mm 0 W/m2
Delerius-Weather
Compliments of Weather Underground - 2 mb

Data updates at regular intervals.